sensor_id;sensor_type;location;lat;lon;timestamp;temperature;humidity
15357;DHT22;7778;48.792;9.260;2023-06-14T00:00:40;16.10;81.60
15357;DHT22;7778;48.792;9.260;2023-06-14T00:03:26;16.10;80.70
15357;DHT22;7778;48.792;9.260;2023-06-14T00:06:11;16.00;82.00
15357;DHT22;7778;48.792;9.260;2023-06-14T00:08:57;15.90;83.70
15357;DHT22;7778;48.792;9.260;2023-06-14T00:11:43;15.90;85.00
15357;DHT22;7778;48.792;9.260;2023-06-14T00:14:30;15.80;84.60
15357;DHT22;7778;48.792;9.260;2023-06-14T00:17:15;15.70;86.30
15357;DHT22;7778;48.792;9.260;2023-06-14T00:20:03;15.60;89.50
15357;DHT22;7778;48.792;9.260;2023-06-14T00:22:51;15.60;89.00
15357;DHT22;7778;48.792;9.260;2023-06-14T00:25:38;15.70;90.40
15357;DHT22;7778;48.792;9.260;2023-06-14T00:28:23;15.70;90.60
15357;DHT22;7778;48.792;9.260;2023-06-14T00:31:10;15.60;90.70
15357;DHT22;7778;48.792;9.260;2023-06-14T00:33:56;15.60;91.20
15357;DHT22;7778;48.792;9.260;2023-06-14T00:36:41;15.60;91.70
15357;DHT22;7778;48.792;9.260;2023-06-14T00:39:27;15.50;91.80
15357;DHT22;7778;48.792;9.260;2023-06-14T00:42:23;15.40;92.10
15357;DHT22;7778;48.792;9.260;2023-06-14T00:45:10;15.40;93.10
15357;DHT22;7778;48.792;9.260;2023-06-14T00:47:58;15.40;93.10
15357;DHT22;7778;48.792;9.260;2023-06-14T00:50:45;15.40;92.90
15357;DHT22;7778;48.792;9.260;2023-06-14T00:53:33;15.50;92.90
15357;DHT22;7778;48.792;9.260;2023-06-14T00:56:19;15.30;93.20
15357;DHT22;7778;48.792;9.260;2023-06-14T00:59:06;15.30;94.90
15357;DHT22;7778;48.792;9.260;2023-06-14T01:01:51;15.20;94.80
15357;DHT22;7778;48.792;9.260;2023-06-14T01:04:39;15.10;95.40
15357;DHT22;7778;48.792;9.260;2023-06-14T01:07:32;15.00;96.70
15357;DHT22;7778;48.792;9.260;2023-06-14T01:10:29;15.00;97.20
15357;DHT22;7778;48.792;9.260;2023-06-14T01:13:21;15.10;97.90
15357;DHT22;7778;48.792;9.260;2023-06-14T01:16:14;15.00;98.60
15357;DHT22;7778;48.792;9.260;2023-06-14T01:19:00;14.70;99.40
15357;DHT22;7778;48.792;9.260;2023-06-14T01:21:49;14.70;99.90
15357;DHT22;7778;48.792;9.260;2023-06-14T01:24:36;14.70;99.90
15357;DHT22;7778;48.792;9.260;2023-06-14T01:27:23;14.70;99.80
15357;DHT22;7778;48.792;9.260;2023-06-14T01:30:13;14.70;99.90
15357;DHT22;7778;48.792;9.260;2023-06-14T01:32:59;14.60;99.90
15357;DHT22;7778;48.792;9.260;2023-06-14T01:35:47;14.60;99.90
15357;DHT22;7778;48.792;9.260;2023-06-14T01:38:33;14.60;99.90
15357;DHT22;7778;48.792;9.260;2023-06-14T01:41:21;14.50;99.90
15357;DHT22;7778;48.792;9.260;2023-06-14T01:44:08;14.40;99.90
15357;DHT22;7778;48.792;9.260;2023-06-14T01:46:54;14.40;99.90
15357;DHT22;7778;48.792;9.260;2023-06-14T01:49:40;14.30;99.90
15357;DHT22;7778;48.792;9.260;2023-06-14T01:52:26;14.30;99.90
15357;DHT22;7778;48.792;9.260;2023-06-14T01:55:11;14.30;99.90
15357;DHT22;7778;48.792;9.260;2023-06-14T01:57:58;14.30;99.90
15357;DHT22;7778;48.792;9.260;2023-06-14T02:00:44;14.20;99.90
15357;DHT22;7778;48.792;9.260;2023-06-14T02:03:31;14.20;99.90
15357;DHT22;7778;48.792;9.260;2023-06-14T02:06:18;14.20;99.90
15357;DHT22;7778;48.792;9.260;2023-06-14T02:09:03;14.10;99.90
15357;DHT22;7778;48.792;9.260;2023-06-14T02:11:50;14.00;99.90
15357;DHT22;7778;48.792;9.260;2023-06-14T02:14:37;14.00;99.90
15357;DHT22;7778;48.792;9.260;2023-06-14T02:17:23;14.00;99.90
15357;DHT22;7778;48.792;9.260;2023-06-14T02:20:09;14.00;99.90
15357;DHT22;7778;48.792;9.260;2023-06-14T02:22:55;13.90;99.90
15357;DHT22;7778;48.792;9.260;2023-06-14T02:25:42;14.00;99.90
15357;DHT22;7778;48.792;9.260;2023-06-14T02:28:28;13.90;99.90
15357;DHT22;7778;48.792;9.260;2023-06-14T02:31:15;13.80;99.90
15357;DHT22;7778;48.792;9.260;2023-06-14T02:34:01;13.80;99.90
15357;DHT22;7778;48.792;9.260;2023-06-14T02:36:47;13.80;99.90
15357;DHT22;7778;48.792;9.260;2023-06-14T02:39:32;13.80;99.90
15357;DHT22;7778;48.792;9.260;2023-06-14T02:42:18;13.90;99.90
15357;DHT22;7778;48.792;9.260;2023-06-14T02:45:05;13.90;99.90
15357;DHT22;7778;48.792;9.260;2023-06-14T02:47:53;13.70;99.90
15357;DHT22;7778;48.792;9.260;2023-06-14T02:50:39;13.70;99.90
15357;DHT22;7778;48.792;9.260;2023-06-14T02:53:25;13.70;99.90
15357;DHT22;7778;48.792;9.260;2023-06-14T02:56:11;13.70;99.90
15357;DHT22;7778;48.792;9.260;2023-06-14T02:58:57;13.70;99.90
15357;DHT22;7778;48.792;9.260;2023-06-14T03:01:44;13.70;99.90
15357;DHT22;7778;48.792;9.260;2023-06-14T03:04:31;13.70;99.90
15357;DHT22;7778;48.792;9.260;2023-06-14T03:07:21;13.50;99.90
15357;DHT22;7778;48.792;9.260;2023-06-14T03:10:08;13.50;99.90
15357;DHT22;7778;48.792;9.260;2023-06-14T03:12:54;13.50;99.90
15357;DHT22;7778;48.792;9.260;2023-06-14T03:15:40;13.60;99.90
15357;DHT22;7778;48.792;9.260;2023-06-14T03:18:26;13.50;99.90
15357;DHT22;7778;48.792;9.260;2023-06-14T03:21:13;13.40;99.90
15357;DHT22;7778;48.792;9.260;2023-06-14T03:24:00;13.30;99.90
15357;DHT22;7778;48.792;9.260;2023-06-14T03:26:46;13.20;99.90
15357;DHT22;7778;48.792;9.260;2023-06-14T03:29:32;13.20;99.90
15357;DHT22;7778;48.792;9.260;2023-06-14T03:32:18;13.20;99.90
15357;DHT22;7778;48.792;9.260;2023-06-14T03:35:04;13.20;99.90
15357;DHT22;7778;48.792;9.260;2023-06-14T03:37:51;13.10;99.90
15357;DHT22;7778;48.792;9.260;2023-06-14T03:40:37;13.20;99.90
15357;DHT22;7778;48.792;9.260;2023-06-14T03:43:24;13.30;99.90
15357;DHT22;7778;48.792;9.260;2023-06-14T03:46:10;13.40;99.90
15357;DHT22;7778;48.792;9.260;2023-06-14T03:48:55;13.40;99.90
15357;DHT22;7778;48.792;9.260;2023-06-14T03:51:41;13.50;99.90
15357;DHT22;7778;48.792;9.260;2023-06-14T03:54:28;13.50;99.90
15357;DHT22;7778;48.792;9.260;2023-06-14T04:13:21;13.80;99.90
15357;DHT22;7778;48.792;9.260;2023-06-14T04:16:07;13.80;99.90
15357;DHT22;7778;48.792;9.260;2023-06-14T04:18:53;13.80;99.90
15357;DHT22;7778;48.792;9.260;2023-06-14T04:21:39;13.90;99.90
15357;DHT22;7778;48.792;9.260;2023-06-14T04:24:25;13.90;99.90
15357;DHT22;7778;48.792;9.260;2023-06-14T04:27:12;14.00;99.90
15357;DHT22;7778;48.792;9.260;2023-06-14T04:30:00;14.10;99.90
15357;DHT22;7778;48.792;9.260;2023-06-14T04:32:46;14.20;99.90
15357;DHT22;7778;48.792;9.260;2023-06-14T04:35:33;14.30;99.90
15357;DHT22;7778;48.792;9.260;2023-06-14T04:38:20;14.40;99.90
15357;DHT22;7778;48.792;9.260;2023-06-14T04:41:09;14.40;99.90
15357;DHT22;7778;48.792;9.260;2023-06-14T04:43:55;14.50;99.90
15357;DHT22;7778;48.792;9.260;2023-06-14T04:46:42;14.60;99.90
15357;DHT22;7778;48.792;9.260;2023-06-14T04:49:29;14.60;99.90
15357;DHT22;7778;48.792;9.260;2023-06-14T04:52:16;14.70;99.90
15357;DHT22;7778;48.792;9.260;2023-06-14T04:55:05;14.80;99.90
15357;DHT22;7778;48.792;9.260;2023-06-14T04:57:51;15.10;99.90
15357;DHT22;7778;48.792;9.260;2023-06-14T05:00:38;15.20;99.90
15357;DHT22;7778;48.792;9.260;2023-06-14T05:03:25;15.30;99.90
15357;DHT22;7778;48.792;9.260;2023-06-14T05:06:11;15.40;99.90
15357;DHT22;7778;48.792;9.260;2023-06-14T05:08:56;16.00;99.90
15357;DHT22;7778;48.792;9.260;2023-06-14T05:11:42;17.60;99.90
15357;DHT22;7778;48.792;9.260;2023-06-14T05:14:28;19.70;99.90
15357;DHT22;7778;48.792;9.260;2023-06-14T05:17:14;22.20;99.90
15357;DHT22;7778;48.792;9.260;2023-06-14T05:20:02;24.10;95.40
15357;DHT22;7778;48.792;9.260;2023-06-14T05:22:49;25.50;91.80
15357;DHT22;7778;48.792;9.260;2023-06-14T05:25:36;27.10;83.20
15357;DHT22;7778;48.792;9.260;2023-06-14T05:28:21;28.10;76.50
15357;DHT22;7778;48.792;9.260;2023-06-14T05:31:07;29.00;69.50
15357;DHT22;7778;48.792;9.260;2023-06-14T05:33:52;29.40;63.90
15357;DHT22;7778;48.792;9.260;2023-06-14T05:36:40;28.90;63.80
15357;DHT22;7778;48.792;9.260;2023-06-14T05:39:27;29.70;63.10
15357;DHT22;7778;48.792;9.260;2023-06-14T05:42:12;30.40;61.20
15357;DHT22;7778;48.792;9.260;2023-06-14T05:44:58;30.90;59.90
15357;DHT22;7778;48.792;9.260;2023-06-14T05:47:43;31.60;57.90
15357;DHT22;7778;48.792;9.260;2023-06-14T05:50:29;32.20;56.50
15357;DHT22;7778;48.792;9.260;2023-06-14T05:53:16;32.80;54.90
15357;DHT22;7778;48.792;9.260;2023-06-14T05:56:02;33.00;53.10
15357;DHT22;7778;48.792;9.260;2023-06-14T05:58:48;32.60;53.00
15357;DHT22;7778;48.792;9.260;2023-06-14T06:01:34;32.40;52.40
15357;DHT22;7778;48.792;9.260;2023-06-14T06:04:20;31.70;52.80
15357;DHT22;7778;48.792;9.260;2023-06-14T06:07:06;31.90;52.90
15357;DHT22;7778;48.792;9.260;2023-06-14T06:09:53;32.00;52.80
15357;DHT22;7778;48.792;9.260;2023-06-14T06:12:38;32.40;51.80
15357;DHT22;7778;48.792;9.260;2023-06-14T06:15:24;32.10;50.70
15357;DHT22;7778;48.792;9.260;2023-06-14T06:18:09;32.30;50.20
15357;DHT22;7778;48.792;9.260;2023-06-14T06:20:55;32.30;51.00
15357;DHT22;7778;48.792;9.260;2023-06-14T06:23:41;32.40;49.60
15357;DHT22;7778;48.792;9.260;2023-06-14T06:26:28;32.20;50.30
15357;DHT22;7778;48.792;9.260;2023-06-14T06:29:13;32.70;50.00
15357;DHT22;7778;48.792;9.260;2023-06-14T06:31:59;32.60;50.30
15357;DHT22;7778;48.792;9.260;2023-06-14T06:34:44;32.90;49.90
15357;DHT22;7778;48.792;9.260;2023-06-14T06:37:30;32.00;48.60
15357;DHT22;7778;48.792;9.260;2023-06-14T06:40:15;31.70;50.20
15357;DHT22;7778;48.792;9.260;2023-06-14T06:43:03;32.10;51.10
15357;DHT22;7778;48.792;9.260;2023-06-14T06:45:48;32.60;50.60
15357;DHT22;7778;48.792;9.260;2023-06-14T06:48:34;33.30;50.30
15357;DHT22;7778;48.792;9.260;2023-06-14T06:51:19;33.00;48.20
15357;DHT22;7778;48.792;9.260;2023-06-14T06:54:05;32.10;47.10
15357;DHT22;7778;48.792;9.260;2023-06-14T06:56:51;31.40;46.90
15357;DHT22;7778;48.792;9.260;2023-06-14T06:59:38;31.20;48.00
15357;DHT22;7778;48.792;9.260;2023-06-14T07:02:23;30.90;49.70
15357;DHT22;7778;48.792;9.260;2023-06-14T07:05:09;30.70;49.90
15357;DHT22;7778;48.792;9.260;2023-06-14T07:07:55;31.30;49.80
15357;DHT22;7778;48.792;9.260;2023-06-14T07:10:41;31.10;48.80
15357;DHT22;7778;48.792;9.260;2023-06-14T07:13:27;32.00;50.10
15357;DHT22;7778;48.792;9.260;2023-06-14T07:16:13;32.00;47.30
15357;DHT22;7778;48.792;9.260;2023-06-14T07:18:59;32.40;47.70
15357;DHT22;7778;48.792;9.260;2023-06-14T07:21:45;30.60;47.30
15357;DHT22;7778;48.792;9.260;2023-06-14T07:24:30;30.00;49.50
15357;DHT22;7778;48.792;9.260;2023-06-14T07:27:16;30.70;48.80
15357;DHT22;7778;48.792;9.260;2023-06-14T07:30:01;30.40;48.90
15357;DHT22;7778;48.792;9.260;2023-06-14T07:32:49;30.70;50.00
15357;DHT22;7778;48.792;9.260;2023-06-14T07:35:34;30.80;48.20
15357;DHT22;7778;48.792;9.260;2023-06-14T07:38:20;30.80;49.70
15357;DHT22;7778;48.792;9.260;2023-06-14T07:41:05;30.80;48.50
15357;DHT22;7778;48.792;9.260;2023-06-14T07:43:51;31.50;49.10
15357;DHT22;7778;48.792;9.260;2023-06-14T07:46:37;32.70;47.90
15357;DHT22;7778;48.792;9.260;2023-06-14T07:49:23;32.70;46.80
15357;DHT22;7778;48.792;9.260;2023-06-14T07:52:09;32.50;47.80
15357;DHT22;7778;48.792;9.260;2023-06-14T07:54:55;33.10;48.80
15357;DHT22;7778;48.792;9.260;2023-06-14T07:57:41;32.40;45.50
15357;DHT22;7778;48.792;9.260;2023-06-14T08:00:27;30.60;49.90
15357;DHT22;7778;48.792;9.260;2023-06-14T08:03:12;31.40;49.50
15357;DHT22;7778;48.792;9.260;2023-06-14T08:05:59;31.70;49.10
15357;DHT22;7778;48.792;9.260;2023-06-14T08:08:45;30.80;49.90
15357;DHT22;7778;48.792;9.260;2023-06-14T08:11:31;31.10;49.10
15357;DHT22;7778;48.792;9.260;2023-06-14T08:14:16;30.70;49.70
15357;DHT22;7778;48.792;9.260;2023-06-14T08:17:02;30.30;49.80
15357;DHT22;7778;48.792;9.260;2023-06-14T08:19:49;29.80;50.50
15357;DHT22;7778;48.792;9.260;2023-06-14T08:22:36;28.80;52.50
15357;DHT22;7778;48.792;9.260;2023-06-14T08:25:22;29.20;52.70
15357;DHT22;7778;48.792;9.260;2023-06-14T08:28:07;29.40;54.00
15357;DHT22;7778;48.792;9.260;2023-06-14T08:30:53;30.60;52.20
15357;DHT22;7778;48.792;9.260;2023-06-14T08:33:39;30.90;49.90
15357;DHT22;7778;48.792;9.260;2023-06-14T08:36:27;31.40;51.50
15357;DHT22;7778;48.792;9.260;2023-06-14T08:39:14;32.00;49.20
15357;DHT22;7778;48.792;9.260;2023-06-14T08:42:01;32.90;49.40
15357;DHT22;7778;48.792;9.260;2023-06-14T08:44:49;32.50;46.90
15357;DHT22;7778;48.792;9.260;2023-06-14T08:47:35;31.20;47.70
15357;DHT22;7778;48.792;9.260;2023-06-14T08:50:21;30.70;51.00
15357;DHT22;7778;48.792;9.260;2023-06-14T08:53:08;30.60;48.30
15357;DHT22;7778;48.792;9.260;2023-06-14T08:55:59;29.80;50.90
15357;DHT22;7778;48.792;9.260;2023-06-14T08:58:47;29.50;50.40
15357;DHT22;7778;48.792;9.260;2023-06-14T09:01:34;30.00;51.10
15357;DHT22;7778;48.792;9.260;2023-06-14T09:04:20;31.20;50.40
15357;DHT22;7778;48.792;9.260;2023-06-14T09:07:06;31.90;47.70
15357;DHT22;7778;48.792;9.260;2023-06-14T09:10:07;31.80;47.30
15357;DHT22;7778;48.792;9.260;2023-06-14T09:12:56;32.60;48.20
15357;DHT22;7778;48.792;9.260;2023-06-14T09:15:43;33.20;48.30
15357;DHT22;7778;48.792;9.260;2023-06-14T09:18:35;32.40;48.50
15357;DHT22;7778;48.792;9.260;2023-06-14T09:21:21;32.60;48.00
15357;DHT22;7778;48.792;9.260;2023-06-14T09:24:13;33.00;46.60
15357;DHT22;7778;48.792;9.260;2023-06-14T09:26:59;31.70;47.30
15357;DHT22;7778;48.792;9.260;2023-06-14T09:29:46;31.30;47.50
15357;DHT22;7778;48.792;9.260;2023-06-14T09:32:36;32.00;49.40
15357;DHT22;7778;48.792;9.260;2023-06-14T09:35:23;32.30;46.20
15357;DHT22;7778;48.792;9.260;2023-06-14T09:38:09;30.10;47.50
15357;DHT22;7778;48.792;9.260;2023-06-14T09:40:57;30.40;49.50
15357;DHT22;7778;48.792;9.260;2023-06-14T09:43:43;31.10;50.20
15357;DHT22;7778;48.792;9.260;2023-06-14T09:46:33;31.50;49.80
15357;DHT22;7778;48.792;9.260;2023-06-14T09:49:19;32.70;49.30
15357;DHT22;7778;48.792;9.260;2023-06-14T09:52:07;33.00;48.50
15357;DHT22;7778;48.792;9.260;2023-06-14T09:54:55;32.70;45.70
15357;DHT22;7778;48.792;9.260;2023-06-14T09:57:41;32.70;45.90
15357;DHT22;7778;48.792;9.260;2023-06-14T10:00:28;33.50;43.00
15357;DHT22;7778;48.792;9.260;2023-06-14T10:03:21;33.90;45.40
15357;DHT22;7778;48.792;9.260;2023-06-14T10:06:10;33.10;45.70
15357;DHT22;7778;48.792;9.260;2023-06-14T10:08:57;32.20;47.60
15357;DHT22;7778;48.792;9.260;2023-06-14T10:11:44;31.20;42.60
15357;DHT22;7778;48.792;9.260;2023-06-14T10:14:31;30.80;44.40
15357;DHT22;7778;48.792;9.260;2023-06-14T10:17:23;31.50;44.90
15357;DHT22;7778;48.792;9.260;2023-06-14T10:20:26;32.30;42.20
15357;DHT22;7778;48.792;9.260;2023-06-14T10:23:18;31.50;44.20
15357;DHT22;7778;48.792;9.260;2023-06-14T10:26:05;30.10;44.40
15357;DHT22;7778;48.792;9.260;2023-06-14T10:28:56;30.00;45.10
15357;DHT22;7778;48.792;9.260;2023-06-14T10:31:44;30.50;47.30
15357;DHT22;7778;48.792;9.260;2023-06-14T10:34:31;30.30;43.60
15357;DHT22;7778;48.792;9.260;2023-06-14T10:37:17;30.50;46.00
15357;DHT22;7778;48.792;9.260;2023-06-14T10:40:05;29.70;44.60
15357;DHT22;7778;48.792;9.260;2023-06-14T10:42:53;29.60;44.40
15357;DHT22;7778;48.792;9.260;2023-06-14T10:46:12;29.90;46.10
15357;DHT22;7778;48.792;9.260;2023-06-14T10:49:01;30.00;46.90
15357;DHT22;7778;48.792;9.260;2023-06-14T10:51:50;29.60;46.80
15357;DHT22;7778;48.792;9.260;2023-06-14T10:54:37;30.00;48.00
15357;DHT22;7778;48.792;9.260;2023-06-14T10:57:23;29.90;46.00
15357;DHT22;7778;48.792;9.260;2023-06-14T11:00:10;29.20;45.90
15357;DHT22;7778;48.792;9.260;2023-06-14T11:03:36;28.20;47.20
15357;DHT22;7778;48.792;9.260;2023-06-14T11:06:37;28.60;48.50
15357;DHT22;7778;48.792;9.260;2023-06-14T11:09:54;29.20;48.40
15357;DHT22;7778;48.792;9.260;2023-06-14T11:12:52;29.90;46.00
15357;DHT22;7778;48.792;9.260;2023-06-14T11:15:45;30.20;47.20
15357;DHT22;7778;48.792;9.260;2023-06-14T11:18:31;30.00;50.90
15357;DHT22;7778;48.792;9.260;2023-06-14T11:21:17;30.20;49.00
15357;DHT22;7778;48.792;9.260;2023-06-14T11:24:04;30.50;49.50
15357;DHT22;7778;48.792;9.260;2023-06-14T11:26:57;31.20;48.50
15357;DHT22;7778;48.792;9.260;2023-06-14T11:29:48;32.20;47.50
15357;DHT22;7778;48.792;9.260;2023-06-14T11:32:34;32.90;45.00
15357;DHT22;7778;48.792;9.260;2023-06-14T11:35:22;32.40;45.00
15357;DHT22;7778;48.792;9.260;2023-06-14T11:38:10;31.50;44.00
15357;DHT22;7778;48.792;9.260;2023-06-14T11:40:58;30.90;45.00
15357;DHT22;7778;48.792;9.260;2023-06-14T11:43:46;30.80;46.90
15357;DHT22;7778;48.792;9.260;2023-06-14T11:46:32;30.80;47.70
15357;DHT22;7778;48.792;9.260;2023-06-14T11:49:17;30.70;44.80
15357;DHT22;7778;48.792;9.260;2023-06-14T11:52:03;30.00;46.50
15357;DHT22;7778;48.792;9.260;2023-06-14T11:54:50;29.60;43.70
15357;DHT22;7778;48.792;9.260;2023-06-14T11:57:36;29.00;46.80
15357;DHT22;7778;48.792;9.260;2023-06-14T12:00:26;28.40;48.20
15357;DHT22;7778;48.792;9.260;2023-06-14T12:03:12;28.00;48.90
15357;DHT22;7778;48.792;9.260;2023-06-14T12:06:03;27.90;49.80
15357;DHT22;7778;48.792;9.260;2023-06-14T12:08:51;27.60;48.90
15357;DHT22;7778;48.792;9.260;2023-06-14T12:11:41;27.10;48.90
15357;DHT22;7778;48.792;9.260;2023-06-14T12:14:28;26.70;50.60
15357;DHT22;7778;48.792;9.260;2023-06-14T12:17:17;26.60;52.50
15357;DHT22;7778;48.792;9.260;2023-06-14T12:20:07;27.20;51.00
15357;DHT22;7778;48.792;9.260;2023-06-14T12:22:57;27.90;52.30
15357;DHT22;7778;48.792;9.260;2023-06-14T12:25:44;28.20;51.20
15357;DHT22;7778;48.792;9.260;2023-06-14T12:28:31;28.40;49.10
15357;DHT22;7778;48.792;9.260;2023-06-14T12:31:17;28.60;51.90
15357;DHT22;7778;48.792;9.260;2023-06-14T12:34:04;28.50;47.10
15357;DHT22;7778;48.792;9.260;2023-06-14T12:36:53;28.00;47.10
15357;DHT22;7778;48.792;9.260;2023-06-14T12:39:39;26.80;46.50
15357;DHT22;7778;48.792;9.260;2023-06-14T12:42:25;26.10;51.00
15357;DHT22;7778;48.792;9.260;2023-06-14T12:45:11;25.90;49.30
15357;DHT22;7778;48.792;9.260;2023-06-14T12:47:56;25.70;48.80
15357;DHT22;7778;48.792;9.260;2023-06-14T12:50:43;26.00;52.40
15357;DHT22;7778;48.792;9.260;2023-06-14T12:53:29;26.80;52.40
15357;DHT22;7778;48.792;9.260;2023-06-14T12:56:15;27.30;50.80
15357;DHT22;7778;48.792;9.260;2023-06-14T12:59:01;27.80;53.20
15357;DHT22;7778;48.792;9.260;2023-06-14T13:01:47;28.30;50.50
15357;DHT22;7778;48.792;9.260;2023-06-14T13:04:34;28.40;48.80
15357;DHT22;7778;48.792;9.260;2023-06-14T13:07:22;28.30;50.50
15357;DHT22;7778;48.792;9.260;2023-06-14T13:10:08;28.30;50.80
15357;DHT22;7778;48.792;9.260;2023-06-14T13:12:54;28.30;48.70
15357;DHT22;7778;48.792;9.260;2023-06-14T13:15:42;28.40;50.10
15357;DHT22;7778;48.792;9.260;2023-06-14T13:18:28;28.50;51.20
15357;DHT22;7778;48.792;9.260;2023-06-14T13:21:13;28.20;48.60
15357;DHT22;7778;48.792;9.260;2023-06-14T13:24:00;28.00;51.80
15357;DHT22;7778;48.792;9.260;2023-06-14T13:26:46;28.00;49.60
15357;DHT22;7778;48.792;9.260;2023-06-14T13:29:32;28.10;51.50
15357;DHT22;7778;48.792;9.260;2023-06-14T13:32:21;28.00;49.60
15357;DHT22;7778;48.792;9.260;2023-06-14T13:35:07;27.70;49.50
15357;DHT22;7778;48.792;9.260;2023-06-14T13:37:53;27.20;50.80
15357;DHT22;7778;48.792;9.260;2023-06-14T13:40:40;26.90;50.70
15357;DHT22;7778;48.792;9.260;2023-06-14T13:43:26;26.70;50.80
15357;DHT22;7778;48.792;9.260;2023-06-14T13:46:12;26.70;51.90
15357;DHT22;7778;48.792;9.260;2023-06-14T13:48:57;27.10;50.70
15357;DHT22;7778;48.792;9.260;2023-06-14T13:51:45;27.20;51.30
15357;DHT22;7778;48.792;9.260;2023-06-14T13:54:31;27.20;52.60
15357;DHT22;7778;48.792;9.260;2023-06-14T13:57:18;27.40;53.20
15357;DHT22;7778;48.792;9.260;2023-06-14T14:00:04;27.40;51.30
15357;DHT22;7778;48.792;9.260;2023-06-14T14:02:53;26.70;51.90
15357;DHT22;7778;48.792;9.260;2023-06-14T14:05:39;26.20;52.00
15357;DHT22;7778;48.792;9.260;2023-06-14T14:08:24;26.00;51.00
15357;DHT22;7778;48.792;9.260;2023-06-14T14:11:10;25.60;52.00
15357;DHT22;7778;48.792;9.260;2023-06-14T14:13:58;25.30;51.40
15357;DHT22;7778;48.792;9.260;2023-06-14T14:16:44;25.00;52.10
15357;DHT22;7778;48.792;9.260;2023-06-14T14:19:29;25.10;53.20
15357;DHT22;7778;48.792;9.260;2023-06-14T14:22:15;25.30;51.90
15357;DHT22;7778;48.792;9.260;2023-06-14T14:25:00;25.50;52.70
15357;DHT22;7778;48.792;9.260;2023-06-14T14:27:46;25.70;53.90
15357;DHT22;7778;48.792;9.260;2023-06-14T14:30:33;26.10;54.40
15357;DHT22;7778;48.792;9.260;2023-06-14T14:33:18;26.20;52.50
15357;DHT22;7778;48.792;9.260;2023-06-14T14:36:04;26.60;53.20
15357;DHT22;7778;48.792;9.260;2023-06-14T14:38:51;26.80;53.10
15357;DHT22;7778;48.792;9.260;2023-06-14T14:41:37;26.90;51.40
15357;DHT22;7778;48.792;9.260;2023-06-14T14:44:24;26.90;50.40
15357;DHT22;7778;48.792;9.260;2023-06-14T14:47:11;26.70;51.90
15357;DHT22;7778;48.792;9.260;2023-06-14T14:49:57;26.90;52.70
15357;DHT22;7778;48.792;9.260;2023-06-14T14:52:42;27.20;53.20
15357;DHT22;7778;48.792;9.260;2023-06-14T14:55:28;27.20;52.60
15357;DHT22;7778;48.792;9.260;2023-06-14T14:58:14;27.30;51.10
15357;DHT22;7778;48.792;9.260;2023-06-14T15:01:02;27.10;52.10
15357;DHT22;7778;48.792;9.260;2023-06-14T15:03:51;26.90;51.70
15357;DHT22;7778;48.792;9.260;2023-06-14T15:06:37;26.70;54.00
15357;DHT22;7778;48.792;9.260;2023-06-14T15:09:23;26.70;53.50
15357;DHT22;7778;48.792;9.260;2023-06-14T15:12:10;26.50;52.10
15357;DHT22;7778;48.792;9.260;2023-06-14T15:14:56;26.20;53.00
15357;DHT22;7778;48.792;9.260;2023-06-14T15:17:41;26.00;52.40
15357;DHT22;7778;48.792;9.260;2023-06-14T15:20:28;25.80;52.70
15357;DHT22;7778;48.792;9.260;2023-06-14T15:23:13;25.50;54.00
15357;DHT22;7778;48.792;9.260;2023-06-14T15:26:03;25.30;53.50
15357;DHT22;7778;48.792;9.260;2023-06-14T15:28:49;25.30;54.60
15357;DHT22;7778;48.792;9.260;2023-06-14T15:31:35;25.30;54.20
15357;DHT22;7778;48.792;9.260;2023-06-14T15:34:21;25.30;54.30
15357;DHT22;7778;48.792;9.260;2023-06-14T15:37:07;25.40;54.40
15357;DHT22;7778;48.792;9.260;2023-06-14T15:39:53;25.40;52.60
15357;DHT22;7778;48.792;9.260;2023-06-14T15:42:39;25.40;53.60
15357;DHT22;7778;48.792;9.260;2023-06-14T15:45:25;25.40;53.90
15357;DHT22;7778;48.792;9.260;2023-06-14T15:48:10;25.50;54.40
15357;DHT22;7778;48.792;9.260;2023-06-14T15:50:56;25.50;55.10
15357;DHT22;7778;48.792;9.260;2023-06-14T15:53:42;25.50;53.60
15357;DHT22;7778;48.792;9.260;2023-06-14T15:56:28;25.30;53.40
15357;DHT22;7778;48.792;9.260;2023-06-14T15:59:14;25.10;53.20
15357;DHT22;7778;48.792;9.260;2023-06-14T16:01:59;25.10;54.30
15357;DHT22;7778;48.792;9.260;2023-06-14T16:04:45;25.20;54.20
15357;DHT22;7778;48.792;9.260;2023-06-14T16:07:31;25.20;54.50
15357;DHT22;7778;48.792;9.260;2023-06-14T16:10:18;25.20;53.10
15357;DHT22;7778;48.792;9.260;2023-06-14T16:13:03;25.10;52.60
15357;DHT22;7778;48.792;9.260;2023-06-14T16:15:49;25.00;52.10
15357;DHT22;7778;48.792;9.260;2023-06-14T16:18:35;24.80;53.60
15357;DHT22;7778;48.792;9.260;2023-06-14T16:21:20;24.80;53.90
15357;DHT22;7778;48.792;9.260;2023-06-14T16:24:07;24.80;52.70
15357;DHT22;7778;48.792;9.260;2023-06-14T16:26:54;24.70;53.10
15357;DHT22;7778;48.792;9.260;2023-06-14T16:29:40;24.70;53.80
15357;DHT22;7778;48.792;9.260;2023-06-14T16:32:25;24.80;54.50
15357;DHT22;7778;48.792;9.260;2023-06-14T16:35:12;24.80;52.80
15357;DHT22;7778;48.792;9.260;2023-06-14T16:37:58;24.70;53.70
15357;DHT22;7778;48.792;9.260;2023-06-14T16:40:43;24.80;54.40
15357;DHT22;7778;48.792;9.260;2023-06-14T16:43:30;24.80;54.70
15357;DHT22;7778;48.792;9.260;2023-06-14T16:46:28;24.70;54.00
15357;DHT22;7778;48.792;9.260;2023-06-14T16:49:14;24.60;53.30
15357;DHT22;7778;48.792;9.260;2023-06-14T16:52:00;24.50;53.30
15357;DHT22;7778;48.792;9.260;2023-06-14T16:54:45;24.40;54.20
15357;DHT22;7778;48.792;9.260;2023-06-14T16:57:31;24.30;53.60
15357;DHT22;7778;48.792;9.260;2023-06-14T17:00:19;24.40;54.20
15357;DHT22;7778;48.792;9.260;2023-06-14T17:03:05;24.40;55.30
15357;DHT22;7778;48.792;9.260;2023-06-14T17:05:54;24.40;55.10
15357;DHT22;7778;48.792;9.260;2023-06-14T17:08:41;24.40;55.30
15357;DHT22;7778;48.792;9.260;2023-06-14T17:11:27;24.40;56.10
15357;DHT22;7778;48.792;9.260;2023-06-14T17:14:13;24.40;54.40
15357;DHT22;7778;48.792;9.260;2023-06-14T17:17:00;24.20;55.20
15357;DHT22;7778;48.792;9.260;2023-06-14T17:19:46;24.10;55.40
15357;DHT22;7778;48.792;9.260;2023-06-14T17:22:31;24.00;55.80
15357;DHT22;7778;48.792;9.260;2023-06-14T17:25:17;24.00;55.80
15357;DHT22;7778;48.792;9.260;2023-06-14T17:28:03;23.90;55.60
15357;DHT22;7778;48.792;9.260;2023-06-14T17:30:49;23.90;56.20
15357;DHT22;7778;48.792;9.260;2023-06-14T17:33:36;23.90;55.70
15357;DHT22;7778;48.792;9.260;2023-06-14T17:36:22;23.90;55.80
15357;DHT22;7778;48.792;9.260;2023-06-14T17:39:07;23.80;55.90
15357;DHT22;7778;48.792;9.260;2023-06-14T17:41:53;23.90;55.90
15357;DHT22;7778;48.792;9.260;2023-06-14T17:44:39;23.90;55.80
15357;DHT22;7778;48.792;9.260;2023-06-14T17:47:24;23.90;56.50
15357;DHT22;7778;48.792;9.260;2023-06-14T17:50:11;23.90;57.20
15357;DHT22;7778;48.792;9.260;2023-06-14T17:52:57;24.00;58.30
15357;DHT22;7778;48.792;9.260;2023-06-14T17:55:43;24.00;58.20
15357;DHT22;7778;48.792;9.260;2023-06-14T17:58:29;23.70;58.10
15357;DHT22;7778;48.792;9.260;2023-06-14T18:01:15;23.60;58.60
15357;DHT22;7778;48.792;9.260;2023-06-14T18:04:04;23.50;58.70
15357;DHT22;7778;48.792;9.260;2023-06-14T18:06:51;23.50;59.80